Latest Weather Observations for Koolan Island / Koolan Central

IDW60801

Issued at 4:22 am WST Thursday 22 February 2024 (issued every 10 minutes, with the page automatically refreshed every 10 minutes)

About weather observations | Map of weather stations | Latest weather observations for WA | Other Formats
Station Details ID: 503621 Name: KOOLAN ISLAND (KOOLAN CENTRAL AIRPORT) Lat: -16.12 Lon: 123.74 Height: 163.2 m
Data from the previous 72 hours. | See also: Recent months for locations in Western Australia
Date/Time
WST
Temp
°C
App
Temp
°C
Dew
Point
°C
Rel
Hum
%
Delta-T
°C
Wind Press
QNH
hPa
Press
MSL
hPa
Rain since
9am
mm
Dir  Spd
km/h
Gust
km/h
Spd
kts
Gust
kts
22/04:15am 27.6 26.8 25.8 90 1.3 N 41 59 22 32 1006.1 - 15.0
22/04:00am 27.5 27.1 25.9 91 1.1 NNE 39 56 21 30 1006.2 - 15.0
22/03:30am 27.6 27.3 26.0 91 1.1 NNE 39 59 21 32 1005.7 - 15.0
22/03:18am 27.5 27.1 25.9 91 1.1 NNE 39 56 21 30 1005.5 - 15.0
22/03:00am 27.4 27.0 25.8 91 1.1 NNE 39 50 21 27 1004.9 - 15.0
22/02:30am 27.1 26.0 26.0 94 0.8 NNE 43 61 23 33 1004.8 - 15.0
22/02:29am 27.1 26.0 26.0 94 0.8 NNE 43 61 23 33 1004.9 - 15.0
22/02:00am 27.1 26.0 25.9 93 0.9 NNE 43 56 23 30 1004.8 - 15.0
22/01:39am 27.1 25.8 25.7 92 1.0 NNE 43 63 23 34 1005.0 - 15.0
22/01:38am 27.1 26.2 25.7 92 1.0 NNE 41 57 22 31 1005.0 - 15.0
22/01:30am 26.9 25.5 25.5 92 1.0 NNE 43 57 23 31 1005.1 - 15.0
22/01:09am 26.5 25.2 26.0 97 0.4 NNE 44 63 24 34 1005.1 - 14.0
22/01:00am 26.4 25.6 25.9 97 0.4 NNE 41 56 22 30 1005.4 - 13.8
22/12:57am 26.4 25.1 25.7 96 0.5 NNE 43 56 23 30 1005.3 - 13.6
22/12:36am 26.8 25.7 25.4 92 1.0 NNE 41 59 22 32 1005.5 - 13.4
22/12:30am 26.7 25.6 25.3 92 1.0 NNE 41 56 22 30 1005.4 - 13.4
22/12:00am 26.8 26.2 25.0 90 1.3 NNE 37 56 20 30 1005.3 - 13.4
 
Date/Time
WST
Temp
°C
App
Temp
°C
Dew
Point
°C
Rel
Hum
%
Delta-T
°C
Wind Press
QNH
hPa
Press
MSL
hPa
Rain since
9am
mm
Dir  Spd
km/h
Gust
km/h
Spd
kts
Gust
kts
21/11:56pm 26.6 26.7 25.4 93 0.8 NNE 35 56 19 30 1005.4 - 13.4
21/11:30pm 26.5 26.3 25.6 95 0.6 NNE 37 50 20 27 1005.6 - 13.4
21/11:29pm 26.6 26.5 25.7 95 0.6 NNE 37 50 20 27 1005.6 - 13.4
21/11:01pm 26.2 27.0 25.7 97 0.4 NNE 32 52 17 28 1005.7 - 11.0
21/11:00pm 26.5 27.3 25.6 95 0.6 NNE 32 52 17 28 1005.7 - 10.2
21/10:57pm 26.9 27.7 25.7 93 0.8 NNE 32 50 17 27 1005.9 - 10.0
21/10:30pm 27.2 29.1 25.6 91 1.1 NNE 26 43 14 23 1006.2 - 10.0
21/10:00pm 27.2 29.3 25.4 90 1.3 NE 24 41 13 22 1005.8 - 10.0
21/09:54pm 27.2 29.3 25.4 90 1.3 NE 24 37 13 20 1005.9 - 10.0
21/09:35pm 26.2 29.5 25.7 97 0.4 NE 19 32 10 17 1005.7 - 9.8
21/09:30pm 26.2 28.9 25.7 97 0.4 ENE 22 35 12 19 1005.7 - 9.4
21/09:22pm 26.3 28.7 25.8 97 0.4 ENE 24 37 13 20 1005.6 - 9.2
21/09:00pm 26.7 29.5 25.8 95 0.6 ENE 22 41 12 22 1005.6 - 9.2
21/08:53pm 26.8 29.5 25.6 93 0.8 NE 22 41 12 22 1005.7 - 9.2
21/08:30pm 26.7 28.7 25.7 94 0.7 NE 26 44 14 24 1005.5 - 9.2
21/08:00pm 26.0 28.0 25.1 95 0.6 ENE 24 37 13 20 1004.6 - 9.2
21/07:37pm 26.8 27.3 25.2 91 1.1 NNE 32 50 17 27 1004.2 - 9.0
21/07:30pm 26.6 26.9 25.2 92 1.0 NNE 33 48 18 26 1003.8 - 9.0
21/07:22pm 26.4 27.1 25.5 95 0.6 NNE 32 46 17 25 1003.6 - 9.0
21/07:07pm 26.1 28.5 25.2 95 0.6 ENE 22 33 12 18 1003.4 - 9.0
21/07:00pm 26.5 29.7 25.5 94 0.7 ENE 19 30 10 16 1003.4 - 9.0
21/06:59pm 26.5 29.7 25.5 94 0.7 ENE 19 30 10 16 1003.4 - 9.0
21/06:44pm 26.0 28.9 25.1 95 0.6 ENE 19 30 10 16 1003.4 - 9.0
21/06:39pm 26.5 29.5 25.3 93 0.8 NE 19 30 10 16 1003.3 - 8.8
21/06:38pm 26.5 29.5 25.3 93 0.8 NE 19 30 10 16 1003.3 - 8.8
21/06:30pm 26.7 28.8 24.7 89 1.4 NE 22 37 12 20 1003.3 - 8.8
21/06:00pm 25.8 28.6 25.3 97 0.4 E 20 33 11 18 1003.0 - 8.8
21/05:50pm 25.6 27.9 25.1 97 0.4 E 22 33 12 18 1002.8 - 8.8
21/05:32pm 26.0 28.8 25.3 96 0.5 ENE 20 33 11 18 1002.6 - 8.8
21/05:30pm 26.2 29.0 25.3 95 0.6 ENE 20 37 11 20 1002.6 - 8.8
21/05:00pm 26.3 28.4 25.3 94 0.7 ENE 24 43 13 23 1002.0 - 8.4
21/04:37pm 26.2 28.3 25.3 95 0.6 ENE 24 44 13 24 1001.7 - 8.4
21/04:30pm 26.0 27.6 25.1 95 0.6 ENE 26 44 14 24 1001.6 - 8.4
21/04:00pm 25.8 28.0 25.5 98 0.2 E 24 39 13 21 1001.6 - 8.2
21/03:58pm 25.8 28.0 25.5 98 0.2 E 24 39 13 21 1001.6 - 8.0
21/03:53pm 26.0 28.1 25.3 96 0.5 E 24 39 13 21 1001.7 - 8.0
21/03:30pm 25.6 27.7 25.4 99 0.1 ENE 24 44 13 24 1001.6 - 7.8
21/03:00pm 25.8 27.4 25.1 96 0.5 E 26 43 14 23 1001.6 - 6.2
21/02:55pm 26.5 28.1 25.1 92 1.0 E 26 37 14 20 1001.5 - 5.8
21/02:30pm 26.7 28.3 25.1 91 1.1 ENE 26 39 14 21 1001.5 - 5.8
21/02:00pm 27.1 28.4 25.3 90 1.3 E 28 48 15 26 1001.4 - 5.8
21/01:30pm 26.7 27.5 25.1 91 1.1 ENE 30 50 16 27 1001.4 - 5.8
21/01:28pm 26.6 27.4 25.0 91 1.1 ENE 30 50 16 27 1001.5 - 5.8
21/01:24pm 26.5 27.7 25.1 92 1.0 E 28 41 15 22 1001.6 - 5.8
21/01:00pm 25.7 26.3 24.7 94 0.7 ENE 30 46 16 25 1001.8 - 5.4
21/12:58pm 25.8 26.8 24.8 94 0.7 ENE 28 46 15 25 1001.9 - 5.4
21/12:50pm 26.0 28.3 25.0 94 0.7 ENE 22 37 12 20 1001.8 - 5.2
21/12:30pm 25.4 26.6 25.1 98 0.2 E 28 46 15 25 1002.0 - 5.0
21/12:14pm 25.4 25.6 25.1 98 0.2 ESE 33 52 18 28 1002.0 - 4.0
21/12:00pm 25.7 27.0 25.2 97 0.4 SE 28 44 15 24 1002.2 - 2.8
21/11:30am 26.3 29.5 25.8 97 0.4 SE 20 28 11 15 1002.7 - 2.2
21/11:23am 26.5 29.9 25.3 93 0.8 SSE 17 26 9 14 1002.9 - 1.6
21/11:19am 26.4 30.2 25.9 97 0.4 SSE 17 22 9 12 1002.9 - 1.6
21/11:00am 26.1 29.3 25.8 98 0.2 SSE 20 26 11 14 1003.4 - 1.6
21/10:56am 25.9 28.8 25.4 97 0.4 SSE 20 26 11 14 1003.2 - 1.4
21/10:32am 26.5 27.8 24.7 90 1.3 SSE 26 39 14 21 1003.2 - 0.2
21/10:30am 26.8 28.0 24.5 87 1.6 SSE 26 39 14 21 1003.1 - 0.0
21/10:07am 27.1 29.1 24.6 86 1.7 SSE 22 30 12 16 1003.4 - 0.0
21/10:00am 26.9 28.8 24.4 86 1.7 SSE 22 30 12 16 1003.4 - 0.0
21/09:34am 26.6 28.3 24.6 89 1.4 SSE 24 32 13 17 1003.7 - 0.0
21/09:30am 26.5 27.6 24.3 88 1.5 SSE 26 33 14 18 1003.6 - 0.0
21/09:00am 26.7 27.0 24.2 86 1.7 SSE 30 37 16 20 1003.8 - 38.2
21/08:30am 26.4 27.0 24.1 87 1.6 SSE 28 37 15 20 1003.8 - 38.2
21/08:00am 26.1 28.1 24.0 88 1.5 S 20 28 11 15 1003.6 - 38.2
21/07:30am 25.8 27.4 23.8 89 1.4 S 22 33 12 18 1003.3 - 38.2
21/07:00am 25.6 25.8 23.5 88 1.4 S 28 43 15 23 1002.8 - 38.2
21/06:32am 25.3 25.1 23.4 89 1.3 S 30 48 16 26 1002.7 - 38.2
21/06:30am 25.3 25.5 23.5 90 1.2 S 28 39 15 21 1002.8 - 38.2
21/06:00am 25.7 25.0 23.2 86 1.7 S 32 50 17 27 1002.7 - 38.2
21/05:57am 25.6 25.2 23.1 86 1.7 S 30 50 16 27 1002.7 - 38.2
21/05:30am 25.3 25.0 23.2 88 1.4 S 30 39 16 21 1002.3 - 38.2
21/05:00am 25.4 24.3 23.5 89 1.3 S 35 50 19 27 1002.0 - 38.0
21/04:30am 25.8 25.0 24.0 90 1.2 SSE 35 52 19 28 1002.0 - 38.0
21/04:23am 26.2 26.3 24.6 91 1.1 SSE 32 41 17 22 1002.2 - 38.0
21/04:11am 26.1 26.9 25.1 94 0.7 SSE 30 43 16 23 1002.0 - 38.0
21/04:00am 26.5 26.7 24.7 90 1.3 SSW 32 44 17 24 1001.9 - 37.0
21/03:30am 24.8 23.4 24.3 97 0.3 S 39 57 21 31 1002.5 - 28.8
21/03:25am 27.0 27.8 25.6 92 1.0 SSW 32 57 17 31 1002.5 - 25.0
21/03:24am 27.3 28.4 25.5 90 1.3 SSW 30 46 16 25 1002.4 - 24.4
21/03:20am 27.5 28.7 25.1 87 1.7 SSW 28 46 15 25 1002.6 - 24.2
21/03:18am 27.7 29.0 25.3 87 1.7 SSW 28 46 15 25 1002.5 - 23.8
21/03:05am 28.1 31.3 25.9 88 1.6 SSW 20 30 11 16 1002.6 - 22.8
21/03:00am 28.1 31.5 26.1 89 1.4 SSW 20 32 11 17 1002.8 - 22.8
21/02:30am 28.2 30.5 25.6 86 1.8 SSW 24 37 13 20 1002.9 - 22.8
21/02:00am 27.8 31.2 26.2 91 1.1 SW 20 26 11 14 1003.5 - 22.8
21/01:30am 27.2 32.1 25.8 92 1.0 S 11 19 6 10 1004.3 - 22.8
21/01:00am 27.2 31.8 25.4 90 1.3 S 11 13 6 7 1004.5 - 22.8
21/12:30am 27.2 30.9 25.2 89 1.4 SW 15 24 8 13 1005.0 - 22.8
21/12:00am 27.3 30.3 24.7 86 1.8 S 17 26 9 14 1005.1 - 22.8
 
Date/Time
WST
Temp
°C
App
Temp
°C
Dew
Point
°C
Rel
Hum
%
Delta-T
°C
Wind Press
QNH
hPa
Press
MSL
hPa
Rain since
9am
mm
Dir  Spd
km/h
Gust
km/h
Spd
kts
Gust
kts
20/11:30pm 27.4 27.8 24.5 84 2.0 SSE 30 39 16 21 1005.8 - 22.8
20/11:24pm 27.6 28.6 24.8 85 2.0 SSE 28 39 15 21 1006.0 - 22.8
20/11:00pm 27.3 31.6 25.5 90 1.3 S 13 20 7 11 1007.0 - 22.8
20/10:48pm 27.4 30.9 25.4 89 1.4 S 17 24 9 13 1006.9 - 22.8
20/10:30pm 27.3 29.9 24.6 85 1.9 SSW 19 35 10 19 1007.4 - 22.8
20/10:18pm 27.6 31.1 26.9 96 0.5 SW 22 32 12 17 1007.6 - 20.4
20/10:05pm 27.7 31.4 26.6 94 0.8 WSW 20 32 11 17 1007.2 - 20.2
20/10:00pm 27.7 31.4 26.6 94 0.8 WSW 20 32 11 17 1007.3 - 20.2
20/09:57pm 27.7 31.0 26.6 94 0.8 WSW 22 32 12 17 1007.3 - 20.2
20/09:30pm 27.4 30.6 26.5 95 0.6 WSW 22 32 12 17 1007.0 - 20.2
20/09:00pm 27.3 30.5 26.4 95 0.6 WSW 22 32 12 17 1006.8 - 20.2
20/08:30pm 27.2 29.9 26.3 95 0.6 WSW 24 30 13 16 1006.5 - 20.2
20/08:00pm 27.0 30.7 26.3 96 0.5 W 19 26 10 14 1006.3 - 20.2
20/07:43pm 26.8 30.5 25.8 94 0.7 W 17 20 9 11 1006.3 - 20.2
20/07:30pm 27.0 31.6 26.0 94 0.7 W 13 19 7 10 1006.2 - 20.2
20/07:00pm 26.6 31.0 25.6 94 0.7 WSW 13 17 7 9 1006.2 - 20.2
20/06:30pm 26.3 30.5 25.3 94 0.7 WSW 13 15 7 8 1006.2 - 20.2
20/06:00pm 26.9 29.7 24.9 89 1.4 SSW 19 26 10 14 1006.1 - 20.2
20/05:30pm 27.1 28.4 24.6 86 1.7 SSE 26 33 14 18 1005.0 - 20.2
20/05:24pm 27.2 29.4 23.9 82 2.3 S 19 28 10 15 1005.0 - 20.2
20/05:14pm 25.9 26.0 23.9 89 1.4 SW 30 48 16 26 1004.6 - 20.2
20/05:05pm 25.0 26.0 24.7 98 0.2 SSW 28 46 15 25 1004.8 - 19.0
20/05:00pm 25.5 27.8 24.5 94 0.7 S 20 35 11 19 1005.8 - 15.0
20/04:57pm 26.1 29.3 24.3 90 1.2 SSW 15 26 8 14 1005.5 - 14.0
20/04:54pm 27.0 30.9 24.3 85 1.9 SSE 11 26 6 14 1005.3 - 13.6
20/04:37pm 24.5 21.9 24.5 100 0.0 E 46 83 25 45 1004.7 - 13.0
20/04:30pm 26.1 26.0 25.8 98 0.2 SW 37 78 20 42 1005.0 - 10.4
20/04:28pm 27.3 29.0 27.0 98 0.2 W 32 78 17 42 1003.7 - 7.2
20/04:27pm 27.4 29.5 26.5 95 0.6 W 28 63 15 34 1002.8 - 5.8
20/04:25pm 28.6 32.5 27.4 93 0.9 WNW 22 59 12 32 1004.2 - 3.4
20/04:16pm 29.1 31.9 27.5 91 1.2 W 28 39 15 21 1004.3 - 0.8
20/04:14pm 29.3 31.7 27.5 90 1.3 W 30 43 16 23 1004.1 - 0.2
20/04:00pm 30.0 29.8 26.2 80 2.7 W 39 46 21 25 1003.2 - 0.0
20/03:30pm 30.1 29.4 26.5 81 2.6 WSW 43 56 23 30 1002.6 - 0.0
20/03:00pm 30.4 30.3 26.3 79 3.0 W 39 50 21 27 1003.2 - 0.0
20/02:30pm 30.5 30.7 26.7 80 2.7 WSW 39 48 21 26 1003.7 - 0.0
20/02:00pm 30.7 30.9 26.8 80 2.8 W 39 48 21 26 1004.2 - 0.0
20/01:30pm 30.9 31.0 26.6 78 3.1 W 39 50 21 27 1004.8 - 0.0
20/01:00pm 30.7 32.1 26.8 80 2.8 W 33 43 18 23 1005.4 - 0.0
20/12:30pm 31.6 33.8 26.6 75 3.6 WSW 28 39 15 21 1006.0 - 0.0
20/12:00pm 31.1 32.7 25.2 71 4.2 WSW 26 35 14 19 1006.6 - 0.0
20/11:30am 31.6 33.1 25.0 68 4.7 SW 26 35 14 19 1007.1 - 0.0
20/11:00am 30.8 32.6 24.9 71 4.2 SW 24 37 13 20 1007.7 - 0.0
20/10:30am 30.2 30.8 24.8 73 3.8 WSW 30 41 16 22 1007.7 - 0.0
20/10:00am 30.5 32.6 25.3 74 3.7 SW 24 33 13 18 1008.2 - 0.0
20/09:30am 30.7 32.3 25.1 72 4.0 SW 26 37 14 20 1008.5 - 0.0
20/09:00am 30.1 33.5 26.1 79 2.9 SW 20 30 11 16 1008.7 - 0.2
20/08:30am 29.6 32.3 25.6 79 2.8 SW 22 32 12 17 1008.7 - 0.2
20/08:00am 29.2 32.1 26.0 83 2.3 WSW 22 32 12 17 1008.5 - 0.2
20/07:53am 29.1 32.0 25.9 83 2.3 WSW 22 26 12 14 1008.4 - 0.2
20/07:30am 28.7 32.1 26.1 86 1.9 SW 20 26 11 14 1008.3 - 0.2
20/07:16am 28.3 31.0 26.3 89 1.4 SW 24 30 13 16 1008.2 - 0.2
20/07:00am 28.6 31.4 25.8 85 2.0 SW 22 30 12 16 1008.2 - 0.2
20/06:30am 28.2 31.7 26.0 88 1.6 SW 19 28 10 15 1007.7 - 0.2
20/06:00am 27.8 31.0 25.8 89 1.4 SW 20 28 11 15 1007.3 - 0.2
20/05:30am 27.6 30.0 25.2 87 1.7 SW 22 28 12 15 1007.1 - 0.2
20/05:00am 27.5 30.9 24.7 85 2.0 SW 15 22 8 12 1007.0 - 0.2
20/04:30am 27.7 30.5 24.9 85 2.0 SW 19 26 10 14 1006.9 - 0.2
20/04:00am 27.6 31.0 25.8 90 1.3 SW 19 26 10 14 1006.9 - 0.2
20/03:30am 27.7 32.3 25.9 90 1.3 WSW 13 19 7 10 1006.7 - 0.2
20/03:09am 27.8 31.0 25.8 89 1.4 WSW 20 24 11 13 1006.7 - 0.2
20/03:00am 27.8 31.2 25.8 89 1.4 W 19 24 10 13 1006.6 - 0.2
20/02:30am 27.7 31.6 26.1 91 1.1 W 17 26 9 14 1006.6 - 0.2
20/02:08am 27.7 31.6 26.1 91 1.1 W 17 24 9 13 1006.8 - 0.2
20/02:00am 27.5 31.7 25.9 91 1.1 WSW 15 20 8 11 1006.7 - 0.2
20/01:30am 27.2 32.3 25.0 88 1.5 SW 7 9 4 5 1007.3 - 0.2
20/01:00am 27.2 32.4 24.8 87 1.7 WSW 6 9 3 5 1007.6 - 0.2
20/12:30am 27.2 32.3 24.7 86 1.7 WSW 6 13 3 7 1008.0 - 0.2
20/12:00am 27.2 32.6 24.5 85 1.9 S 4 7 2 4 1008.3 - 0.2
 
Date/Time
WST
Temp
°C
App
Temp
°C
Dew
Point
°C
Rel
Hum
%
Delta-T
°C
Wind Press
QNH
hPa
Press
MSL
hPa
Rain since
9am
mm
Dir  Spd
km/h
Gust
km/h
Spd
kts
Gust
kts
19/11:30pm 27.2 32.2 24.5 85 1.9 SE 6 9 3 5 1008.7 - 0.2
19/11:00pm 27.1 32.0 24.4 85 1.9 WSW 6 7 3 4 1008.5 - 0.2
19/10:30pm 27.0 29.6 23.9 83 2.1 WSW 17 22 9 12 1008.3 - 0.2
19/10:00pm 27.0 30.2 24.3 85 1.9 W 15 20 8 11 1008.0 - 0.2
19/09:30pm 27.3 29.7 24.2 83 2.2 WSW 19 26 10 14 1008.2 - 0.2
19/09:00pm 27.1 29.5 24.6 86 1.7 WSW 20 28 11 15 1008.6 - 0.2
19/08:30pm 26.4 28.1 24.6 90 1.3 WSW 24 32 13 17 1008.8 - 0.2
19/08:00pm 26.4 28.2 24.2 88 1.5 WSW 22 30 12 16 1009.0 - 0.2
19/07:30pm 27.6 29.4 23.2 77 3.0 WSW 19 24 10 13 1008.9 - 0.0
19/07:00pm 28.8 31.3 25.4 82 2.4 W 22 32 12 17 1008.8 - 0.0
19/06:30pm 28.7 29.2 25.5 83 2.3 WSW 33 43 18 23 1008.7 - 0.0
19/06:21pm 28.7 29.1 25.1 81 2.5 WSW 32 41 17 22 1008.9 - 0.0
19/06:10pm 28.9 29.8 25.3 81 2.5 WSW 30 39 16 21 1008.8 - 0.0
19/06:00pm 28.9 30.4 25.5 82 2.4 WSW 28 35 15 19 1008.3 - 0.0
19/05:30pm 29.3 30.9 25.1 78 3.0 W 26 33 14 18 1007.2 - 0.0
19/05:00pm 29.5 31.0 25.5 79 2.8 W 28 33 15 18 1006.9 - 0.0
19/04:30pm 29.6 30.7 25.6 79 2.8 W 30 35 16 19 1006.7 - 0.0
19/04:00pm 30.1 31.4 25.2 75 3.5 W 28 37 15 20 1005.8 - 0.0
19/03:30pm 30.2 30.8 25.3 75 3.5 W 32 37 17 20 1005.8 - 0.0
19/03:00pm 30.7 32.2 25.5 74 3.7 W 28 35 15 19 1006.3 - 0.0
19/02:30pm 30.4 31.7 25.2 74 3.7 W 28 35 15 19 1006.6 - 0.0
19/02:00pm 30.9 32.6 25.3 72 4.0 W 26 33 14 18 1007.0 - 0.0
19/01:30pm 30.8 33.5 25.6 74 3.7 W 22 32 12 17 1007.7 - 0.0
19/01:00pm 31.2 33.3 25.3 71 4.2 W 24 30 13 16 1008.3 - 0.0
19/12:30pm 30.6 32.1 25.0 72 4.0 WSW 26 30 14 16 1008.8 - 0.0
19/12:00pm 30.2 32.4 24.8 73 3.8 W 22 28 12 15 1009.1 - 0.0
19/11:30am 30.4 33.5 25.7 76 3.4 W 20 26 11 14 1009.6 - 0.0
19/11:00am 30.3 33.6 26.0 78 3.1 W 20 28 11 15 1010.0 - 0.0
19/10:30am 30.0 33.3 25.7 78 3.1 W 19 26 10 14 1010.4 - 0.0
19/10:00am 29.7 33.1 25.9 80 2.7 W 19 24 10 13 1010.8 - 0.0
19/09:30am 28.9 32.7 25.9 84 2.1 W 17 22 9 12 1010.8 - 0.0
19/09:00am 29.1 32.8 25.7 82 2.4 W 17 22 9 12 1010.9 - 0.0
19/08:30am 28.7 33.1 25.7 84 2.1 W 13 19 7 10 1011.0 - 0.0
19/08:00am 28.7 32.4 25.7 84 2.1 W 17 20 9 11 1010.8 - 0.0
19/07:30am 28.3 32.6 25.5 85 2.0 W 13 17 7 9 1010.4 - 0.0
19/07:00am 28.0 32.1 25.8 88 1.6 WNW 15 20 8 11 1010.1 - 0.0
19/06:51am 27.9 31.8 25.5 87 1.7 WNW 15 20 8 11 1009.9 - 0.0
19/06:30am 27.7 32.3 25.9 90 1.3 WNW 13 19 7 10 1009.8 - 0.0
19/06:00am 27.6 31.8 25.4 88 1.6 W 13 20 7 11 1009.5 - 0.0
19/05:45am 27.6 32.1 25.8 90 1.3 W 13 19 7 10 1009.6 - 0.0
19/05:30am 27.7 32.3 25.9 90 1.3 W 13 15 7 8 1009.5 - 0.0
19/05:00am 27.6 32.7 25.6 89 1.4 W 9 13 5 7 1009.3 - 0.0
19/04:30am 27.6 32.7 25.6 89 1.4 SW 9 11 5 6 1009.3 - 0.0

Other formats

Comma delimited format used in spreadsheet applications
http://www.bom.gov.au/fwo/IDW60801/IDW60801.99200.axf

JavaScript Object Notation format (JSON) in row-major order
http://www.bom.gov.au/fwo/IDW60801/IDW60801.99200.json

Data quality

Most of these data are generated automatically and are frequently updated. Quality checks on data are not normally performed. It is possible for incorrect values to appear. Refer to information at About Latest Weather Observations and please check the disclaimer before using these data.